Time;durP1;ratioP1;P1;durP2;ratioP2;P2;SDS_P1;SDS_P2;PMS_P1;PMS_P2;Temp;Humidity;BMP_temperature;BMP_pressure;BME280_temperature;BME280_humidity;BME280_pressure;Samples;Min_cycle;Max_cycle;Signal;HPM_P1;HPM_P2
2021/12/01 00:00:51;;;;;;;1.45;0.22;;;24.70;99.90;;;;;;4991383;28;20452;-70
2021/12/01 00:03:18;;;;;;;1.95;0.20;;;24.80;99.90;;;;;;4990699;28;20038;-70
2021/12/01 00:05:46;;;;;;;3.38;0.30;;;24.70;99.90;;;;;;4988703;28;20042;-69
2021/12/01 00:08:13;;;;;;;0.90;0.35;;;24.70;99.90;;;;;;4993112;28;20054;-70
2021/12/01 00:10:41;;;;;;;3.22;0.28;;;24.60;99.90;;;;;;4991464;28;20046;-70
2021/12/01 00:13:13;;;;;;;1.20;0.20;;;24.60;99.90;;;;;;5002901;28;20371;-70
2021/12/01 00:15:43;;;;;;;3.65;0.30;;;24.60;99.90;;;;;;4990413;28;20029;-70
2021/12/01 00:18:11;;;;;;;1.02;0.17;;;24.50;99.90;;;;;;5005165;28;20487;-70
2021/12/01 00:20:39;;;;;;;3.17;0.55;;;24.40;99.90;;;;;;4997349;28;20023;-69
2021/12/01 00:23:08;;;;;;;0.70;0.20;;;24.40;99.90;;;;;;5004779;28;20026;-69
2021/12/01 00:25:39;;;;;;;3.33;0.65;;;24.20;99.90;;;;;;4999542;28;20082;-69
2021/12/01 00:28:08;;;;;;;2.20;0.50;;;24.20;99.90;;;;;;5008811;28;20018;-68
2021/12/01 00:30:35;;;;;;;2.67;0.50;;;24.40;99.90;;;;;;4997538;28;20415;-68
2021/12/01 00:33:03;;;;;;;2.00;0.40;;;24.50;99.90;;;;;;4993872;28;20015;-68
2021/12/01 00:35:31;;;;;;;6.57;0.52;;;24.50;99.90;;;;;;4996523;28;20022;-68
2021/12/01 00:37:59;;;;;;;1.48;0.40;;;25.00;99.90;;;;;;4993934;28;20018;-68
2021/12/01 00:40:26;;;;;;;1.50;0.30;;;25.30;99.90;;;;;;4990844;28;20030;-68
2021/12/01 00:42:54;;;;;;;5.43;0.63;;;25.50;99.90;;;;;;4991840;28;20019;-67
2021/12/01 00:45:22;;;;;;;4.15;0.77;;;25.40;99.90;;;;;;4992915;28;20545;-67
2021/12/01 00:47:52;;;;;;;4.18;0.40;;;25.60;99.90;;;;;;5006157;28;20030;-67
2021/12/01 00:50:30;;;;;;;3.58;0.40;;;25.70;99.90;;;;;;4992989;28;20049;-69
2021/12/01 00:53:00;;;;;;;0.65;0.28;;;25.60;99.90;;;;;;4987115;28;20022;-66
2021/12/01 00:55:28;;;;;;;2.90;0.40;;;25.40;99.90;;;;;;4994890;28;20023;-67
2021/12/01 00:57:57;;;;;;;1.17;0.20;;;25.40;99.90;;;;;;4994998;28;20034;-67
2021/12/01 01:00:27;;;;;;;2.33;0.40;;;25.60;99.90;;;;;;5011714;28;20471;-67
2021/12/01 01:02:56;;;;;;;3.15;0.35;;;25.70;99.90;;;;;;4996031;28;20029;-66
2021/12/01 01:05:24;;;;;;;2.33;0.30;;;25.90;99.90;;;;;;4997791;28;20057;-67
2021/12/01 01:07:52;;;;;;;3.50;0.47;;;25.70;99.90;;;;;;5018400;28;20098;-66
2021/12/01 01:18:36;;;;;;;2.20;0.22;;;25.90;99.90;;;;;;4990993;28;20509;-66
2021/12/01 01:21:04;;;;;;;1.40;0.38;;;25.80;99.90;;;;;;4994902;28;20030;-67
2021/12/01 01:23:33;;;;;;;3.95;0.50;;;25.90;99.90;;;;;;4995308;28;20034;-67
2021/12/01 01:26:03;;;;;;;0.98;0.40;;;26.00;99.90;;;;;;4988382;28;20027;-69
2021/12/01 01:28:31;;;;;;;0.82;0.30;;;25.60;99.90;;;;;;4993061;28;20031;-68
2021/12/01 01:30:59;;;;;;;2.92;0.30;;;25.90;99.90;;;;;;4993001;28;20034;-68
2021/12/01 01:33:27;;;;;;;0.80;0.30;;;26.10;99.90;;;;;;4990170;28;20034;-68
2021/12/01 01:35:54;;;;;;;5.50;0.40;;;26.30;99.90;;;;;;4995973;28;20394;-68
2021/12/01 01:38:21;;;;;;;3.47;0.30;;;25.60;99.90;;;;;;4993761;28;20042;-67
2021/12/01 01:40:49;;;;;;;2.33;0.40;;;25.70;99.90;;;;;;4999748;28;20026;-69
2021/12/01 01:43:17;;;;;;;1.17;0.30;;;26.00;99.90;;;;;;5009960;28;20026;-69
2021/12/01 01:45:44;;;;;;;2.95;0.50;;;25.90;99.90;;;;;;4996753;28;20034;-68
2021/12/01 01:48:14;;;;;;;3.55;0.35;;;26.10;99.90;;;;;;5021500;28;20031;-68
2021/12/01 01:50:43;;;;;;;2.05;0.30;;;26.10;99.90;;;;;;5006969;28;20395;-68
2021/12/01 01:53:17;;;;;;;2.58;0.73;;;26.20;99.90;;;;;;5019586;28;20027;-68
2021/12/01 01:55:47;;;;;;;0.77;0.43;;;26.10;99.90;;;;;;4985812;28;20023;-68
2021/12/01 01:58:15;;;;;;;0.55;0.20;;;26.40;99.90;;;;;;4993691;28;20065;-69
2021/12/01 02:00:51;;;;;;;0.32;0.20;;;26.40;99.90;;;;;;4994747;28;20080;-67
2021/12/01 02:03:21;;;;;;;1.77;0.30;;;25.60;99.90;;;;;;4992192;28;20518;-68
2021/12/01 02:05:49;;;;;;;2.15;0.68;;;25.40;99.90;;;;;;4994489;28;20042;-68
2021/12/01 02:10:44;;;;;;;1.63;0.20;;;25.20;99.90;;;;;;5015257;23;20085;-76
2021/12/01 02:13:11;;;;;;;6.38;0.73;;;25.00;99.90;;;;;;5052912;22;20760;-69
2021/12/01 02:15:38;;;;;;;1.35;0.45;;;24.90;99.90;;;;;;4992586;28;20110;-68
2021/12/01 02:18:06;;;;;;;0.70;0.20;;;24.80;99.90;;;;;;4991000;28;20034;-68
2021/12/01 02:20:33;;;;;;;3.25;0.40;;;24.80;99.90;;;;;;5001942;28;20029;-69
2021/12/01 02:23:01;;;;;;;0.75;0.20;;;24.70;99.90;;;;;;5002105;28;20022;-67
2021/12/01 02:25:29;;;;;;;1.02;0.20;;;24.60;99.90;;;;;;5014528;28;20018;-68
2021/12/01 02:27:56;;;;;;;0.70;0.20;;;24.60;99.90;;;;;;5004058;28;20030;-68
2021/12/01 02:30:25;;;;;;;5.32;0.52;;;24.70;99.90;;;;;;5004341;28;20032;-68
2021/12/01 02:32:52;;;;;;;1.63;0.28;;;24.90;99.90;;;;;;4996537;28;20109;-69
2021/12/01 02:35:20;;;;;;;3.10;0.65;;;25.00;99.90;;;;;;5007836;28;20031;-68
2021/12/01 02:37:47;;;;;;;1.45;0.30;;;25.10;99.90;;;;;;4982051;28;20399;-68
2021/12/01 02:40:15;;;;;;;1.42;0.10;;;25.40;99.90;;;;;;4998338;28;20042;-68
2021/12/01 02:42:42;;;;;;;0.38;0.10;;;25.50;99.90;;;;;;4993839;28;20105;-68
2021/12/01 02:45:09;;;;;;;1.42;0.10;;;25.90;99.90;;;;;;4993968;28;20030;-68
2021/12/01 02:47:36;;;;;;;1.40;0.17;;;25.90;99.90;;;;;;4989713;28;20023;-68
2021/12/01 02:50:05;;;;;;;2.47;0.13;;;25.70;99.90;;;;;;5005967;28;20018;-68
2021/12/01 02:52:38;;;;;;;2.10;0.20;;;25.80;99.90;;;;;;5007819;28;20097;-68
2021/12/01 02:55:09;;;;;;;1.88;0.60;;;25.60;99.90;;;;;;4995759;28;20418;-67
2021/12/01 02:57:50;;;;;;;1.48;0.20;;;25.70;99.90;;;;;;5001311;28;20063;-67
2021/12/01 03:00:21;;;;;;;1.52;0.20;;;25.70;99.90;;;;;;4998562;28;20073;-67
2021/12/01 03:02:49;;;;;;;1.02;0.20;;;25.50;99.90;;;;;;5015021;28;20045;-67
2021/12/01 03:05:17;;;;;;;0.60;0.25;;;25.80;99.90;;;;;;4995908;28;20114;-67
2021/12/01 03:07:46;;;;;;;0.70;0.20;;;25.80;99.90;;;;;;5005943;28;20026;-68
2021/12/01 03:10:14;;;;;;;0.60;0.20;;;26.00;99.90;;;;;;4992631;28;20162;-68
2021/12/01 03:12:43;;;;;;;1.23;0.20;;;25.70;99.90;;;;;;4992063;28;20109;-67
2021/12/01 03:15:16;;;;;;;0.25;0.10;;;26.00;99.90;;;;;;4994827;28;20054;-67
2021/12/01 03:17:44;;;;;;;2.38;0.30;;;25.80;99.90;;;;;;4994885;28;20029;-67
2021/12/01 03:20:14;;;;;;;1.40;0.20;;;25.50;99.90;;;;;;4995661;28;20034;-68
2021/12/01 03:22:43;;;;;;;1.08;0.20;;;25.50;99.90;;;;;;4987494;28;20376;-68
2021/12/01 03:25:14;;;;;;;1.58;0.20;;;25.60;99.90;;;;;;4975904;28;20106;-68
2021/12/01 03:27:43;;;;;;;0.57;0.10;;;25.60;99.90;;;;;;4983135;28;20057;-68
2021/12/01 03:30:13;;;;;;;0.70;0.20;;;25.30;99.90;;;;;;4996894;28;20031;-68
2021/12/01 03:32:42;;;;;;;3.25;0.28;;;25.40;99.90;;;;;;4994376;28;20030;-67
2021/12/01 03:35:12;;;;;;;2.45;0.30;;;25.60;99.90;;;;;;4994877;28;20026;-67
2021/12/01 03:37:41;;;;;;;1.15;0.20;;;25.70;99.90;;;;;;4989727;28;21039;-68
2021/12/01 03:40:11;;;;;;;0.80;0.25;;;25.60;99.90;;;;;;4980956;28;20035;-68
2021/12/01 03:42:39;;;;;;;1.13;0.30;;;25.40;99.90;;;;;;4981005;28;20045;-68
2021/12/01 03:45:07;;;;;;;3.13;0.28;;;25.40;99.90;;;;;;4983013;28;20026;-68
2021/12/01 03:47:34;;;;;;;1.10;0.20;;;25.20;99.90;;;;;;4985598;28;20085;-68
2021/12/01 03:50:03;;;;;;;2.92;0.28;;;24.90;99.90;;;;;;4993710;28;20046;-68
2021/12/01 03:52:30;;;;;;;0.40;0.17;;;25.10;99.90;;;;;;4992883;28;20076;-67
2021/12/01 03:54:57;;;;;;;0.63;0.20;;;25.00;99.90;;;;;;4993957;28;20467;-67
2021/12/01 03:57:25;;;;;;;0.50;0.20;;;25.00;99.90;;;;;;4993258;28;20522;-67
2021/12/01 03:59:53;;;;;;;1.58;0.30;;;24.90;99.90;;;;;;4993812;28;20068;-67
2021/12/01 04:02:21;;;;;;;0.90;0.20;;;24.80;99.90;;;;;;4992478;28;20034;-67
2021/12/01 04:04:48;;;;;;;1.45;0.15;;;24.90;99.90;;;;;;4993755;28;20500;-68
2021/12/01 04:07:15;;;;;;;2.92;0.17;;;25.10;99.90;;;;;;4993145;28;20084;-67
2021/12/01 04:09:44;;;;;;;0.50;0.30;;;25.20;99.90;;;;;;4991519;28;20026;-67
2021/12/01 04:12:12;;;;;;;0.75;0.15;;;25.40;99.90;;;;;;4993431;28;20505;-67
2021/12/01 04:14:39;;;;;;;2.00;0.20;;;25.30;99.90;;;;;;4982961;28;20047;-68
2021/12/01 04:17:07;;;;;;;1.17;0.28;;;25.40;99.90;;;;;;4976720;28;20037;-67
2021/12/01 04:19:34;;;;;;;2.38;0.30;;;25.40;99.90;;;;;;4993515;28;20029;-67
2021/12/01 04:22:02;;;;;;;1.38;0.20;;;25.30;99.90;;;;;;4992525;28;20072;-67
2021/12/01 04:24:30;;;;;;;2.45;0.40;;;25.30;99.90;;;;;;4993474;28;20041;-67
2021/12/01 04:26:58;;;;;;;0.43;0.20;;;25.40;99.90;;;;;;4991428;28;20036;-67
2021/12/01 04:29:26;;;;;;;0.30;0.10;;;25.40;99.90;;;;;;4992097;28;20090;-68
2021/12/01 04:31:53;;;;;;;2.22;0.22;;;25.20;99.90;;;;;;4989295;28;20026;-68
2021/12/01 04:34:21;;;;;;;0.82;0.40;;;25.40;99.90;;;;;;5008304;28;20038;-67
2021/12/01 04:36:50;;;;;;;0.88;0.15;;;25.30;99.90;;;;;;4992646;28;20022;-67
2021/12/01 04:39:20;;;;;;;2.47;0.20;;;25.40;99.90;;;;;;4978448;28;20033;-68
2021/12/01 04:41:56;;;;;;;1.20;0.30;;;25.60;99.90;;;;;;4973872;28;20491;-68
2021/12/01 04:44:26;;;;;;;1.50;0.22;;;25.40;99.90;;;;;;4993722;28;20030;-67
2021/12/01 04:46:56;;;;;;;0.47;0.10;;;25.20;99.90;;;;;;4991718;28;20487;-67
2021/12/01 04:49:25;;;;;;;1.85;0.10;;;25.40;99.90;;;;;;4972340;28;20035;-67
2021/12/01 04:51:56;;;;;;;1.67;0.35;;;25.20;99.90;;;;;;4974577;28;20106;-67
2021/12/01 04:54:24;;;;;;;1.00;0.10;;;25.30;99.90;;;;;;4978977;28;20112;-67
2021/12/01 04:56:53;;;;;;;1.13;0.10;;;25.10;99.90;;;;;;4973483;28;20039;-68
2021/12/01 04:59:21;;;;;;;1.60;0.32;;;25.30;99.90;;;;;;5008239;28;20034;-67
2021/12/01 05:01:55;;;;;;;1.65;0.30;;;25.40;99.90;;;;;;4992222;28;20027;-68
2021/12/01 05:04:23;;;;;;;1.88;0.20;;;25.40;99.90;;;;;;4993281;28;20089;-68
2021/12/01 05:06:51;;;;;;;0.80;0.30;;;25.20;99.90;;;;;;4992591;28;20538;-68
2021/12/01 05:09:19;;;;;;;0.93;0.20;;;25.40;99.90;;;;;;4990994;28;20034;-68
2021/12/01 05:11:46;;;;;;;1.33;0.10;;;25.50;99.90;;;;;;4986142;28;20030;-67
2021/12/01 05:14:14;;;;;;;0.80;0.10;;;25.50;99.90;;;;;;4990900;28;20372;-66
2021/12/01 05:16:43;;;;;;;1.95;0.20;;;25.50;99.90;;;;;;4991311;28;20119;-67
2021/12/01 05:19:11;;;;;;;1.67;0.17;;;25.40;99.90;;;;;;4991907;28;20080;-68
2021/12/01 05:21:40;;;;;;;0.50;0.10;;;25.20;99.90;;;;;;4988977;28;20026;-68
2021/12/01 05:24:07;;;;;;;1.98;0.10;;;25.10;99.90;;;;;;4995129;28;20046;-66
2021/12/01 05:26:35;;;;;;;1.20;0.30;;;25.00;99.90;;;;;;4996217;28;20023;-66
2021/12/01 05:29:03;;;;;;;0.40;0.10;;;25.20;99.90;;;;;;5001266;28;20479;-68
2021/12/01 05:31:31;;;;;;;0.90;0.20;;;25.40;99.90;;;;;;4998524;28;20026;-67
2021/12/01 05:33:58;;;;;;;4.43;0.20;;;25.40;99.90;;;;;;4993675;28;20026;-66
2021/12/01 05:36:25;;;;;;;1.42;0.13;;;25.50;99.90;;;;;;5010073;28;20107;-68
2021/12/01 05:38:53;;;;;;;2.40;0.10;;;25.40;99.90;;;;;;5021057;28;20088;-67
2021/12/01 05:41:20;;;;;;;0.10;0.10;;;25.40;99.90;;;;;;4994639;28;20034;-67
2021/12/01 05:43:48;;;;;;;0.57;0.20;;;25.30;99.90;;;;;;4993600;28;20027;-68
2021/12/01 05:46:15;;;;;;;0.52;0.13;;;25.50;99.90;;;;;;4992662;28;20095;-68
2021/12/01 05:48:42;;;;;;;0.50;0.10;;;25.70;99.90;;;;;;4993604;28;20030;-68
2021/12/01 05:51:10;;;;;;;1.10;0.30;;;25.40;99.90;;;;;;4994519;28;20050;-68
2021/12/01 05:53:37;;;;;;;1.55;0.10;;;25.40;99.90;;;;;;4993183;28;20572;-69
2021/12/01 05:56:05;;;;;;;0.30;0.10;;;25.60;99.90;;;;;;4994820;28;20066;-70
2021/12/01 05:58:33;;;;;;;0.32;0.13;;;25.50;99.90;;;;;;4996264;28;20033;-68
2021/12/01 06:01:00;;;;;;;4.70;0.20;;;25.70;99.90;;;;;;4999764;28;20050;-69
2021/12/01 06:03:28;;;;;;;0.93;0.10;;;25.70;99.90;;;;;;4994910;28;20026;-69
2021/12/01 06:05:55;;;;;;;1.50;0.17;;;25.40;99.90;;;;;;4994115;28;20028;-69
2021/12/01 06:08:23;;;;;;;0.40;0.10;;;25.40;99.90;;;;;;4993778;28;20391;-67
2021/12/01 06:10:50;;;;;;;0.32;0.10;;;25.60;99.90;;;;;;4990985;28;20034;-69
2021/12/01 06:13:20;;;;;;;2.33;0.30;;;25.90;99.90;;;;;;4994178;28;20051;-69
2021/12/01 06:15:51;;;;;;;0.15;0.10;;;26.20;99.90;;;;;;5002936;28;20017;-68
2021/12/01 06:18:19;;;;;;;1.20;0.10;;;25.70;99.90;;;;;;4995224;28;20031;-68
2021/12/01 06:20:47;;;;;;;0.68;0.17;;;26.20;99.90;;;;;;5008552;28;20124;-68
2021/12/01 06:23:14;;;;;;;0.45;0.10;;;26.60;99.90;;;;;;4991649;28;20042;-68
2021/12/01 06:25:42;;;;;;;1.30;0.30;;;26.10;99.90;;;;;;4993456;28;20084;-68
2021/12/01 06:28:09;;;;;;;1.10;0.20;;;25.30;99.90;;;;;;4991754;28;20102;-68
2021/12/01 06:30:38;;;;;;;1.20;0.20;;;25.10;99.90;;;;;;4990942;28;20106;-68
2021/12/01 06:33:06;;;;;;;0.10;0.10;;;24.80;99.90;;;;;;4997497;28;20057;-68
2021/12/01 06:35:34;;;;;;;1.27;0.30;;;24.50;99.90;;;;;;4994716;28;20030;-67
2021/12/01 06:38:02;;;;;;;1.60;0.20;;;24.20;99.90;;;;;;4992886;28;20029;-68
2021/12/01 06:40:30;;;;;;;0.88;0.20;;;24.00;99.90;;;;;;4993517;28;20458;-67
2021/12/01 06:42:58;;;;;;;0.45;0.30;;;23.90;99.90;;;;;;4995206;28;20116;-68
2021/12/01 06:45:25;;;;;;;0.60;0.20;;;23.90;99.90;;;;;;4993697;28;20023;-68
2021/12/01 06:47:52;;;;;;;0.68;0.30;;;23.90;99.90;;;;;;4993297;28;20030;-67
2021/12/01 06:50:20;;;;;;;5.80;0.40;;;24.50;99.90;;;;;;4993701;28;20041;-68
2021/12/01 06:52:47;;;;;;;0.30;0.10;;;24.70;99.90;;;;;;4996842;28;20026;-67
2021/12/01 06:55:20;;;;;;;1.02;0.20;;;24.30;99.90;;;;;;4994821;28;20430;-68
2021/12/01 06:57:48;;;;;;;0.85;0.40;;;24.30;99.90;;;;;;4993532;28;20109;-67
2021/12/01 07:00:17;;;;;;;3.38;0.35;;;24.20;99.90;;;;;;4998172;28;20026;-67
2021/12/01 07:02:45;;;;;;;1.15;0.30;;;24.00;99.90;;;;;;4994000;28;20034;-68
2021/12/01 07:05:13;;;;;;;2.70;0.25;;;23.80;99.90;;;;;;4993317;28;20053;-68
2021/12/01 07:07:40;;;;;;;1.55;0.20;;;23.60;99.90;;;;;;4988501;28;20034;-68
2021/12/01 07:10:10;;;;;;;1.67;0.20;;;23.50;99.90;;;;;;4992416;28;20034;-67
2021/12/01 07:12:39;;;;;;;0.93;0.40;;;23.40;99.90;;;;;;5005888;28;20121;-68
2021/12/01 07:15:07;;;;;;;4.88;0.60;;;23.50;99.90;;;;;;4993857;28;20410;-69
2021/12/01 07:17:35;;;;;;;0.90;0.30;;;23.30;99.90;;;;;;4991294;28;20390;-69
2021/12/01 07:20:04;;;;;;;1.65;0.20;;;23.30;99.90;;;;;;5008790;28;20030;-68
2021/12/01 07:22:31;;;;;;;1.33;0.43;;;23.20;99.90;;;;;;4992991;28;20037;-68
2021/12/01 07:24:58;;;;;;;0.82;0.20;;;23.20;99.90;;;;;;4990330;28;20499;-70
2021/12/01 07:27:25;;;;;;;0.77;0.30;;;23.00;99.90;;;;;;4980053;28;20018;-68
2021/12/01 07:29:53;;;;;;;1.63;0.20;;;23.00;99.90;;;;;;4993990;28;20034;-68
2021/12/01 07:32:21;;;;;;;0.73;0.20;;;23.00;99.90;;;;;;5008870;28;20046;-68
2021/12/01 07:34:48;;;;;;;3.42;0.52;;;22.90;99.90;;;;;;4994977;28;20062;-68
2021/12/01 07:37:17;;;;;;;1.60;0.40;;;22.90;99.90;;;;;;4994571;28;20495;-68
2021/12/01 07:39:46;;;;;;;0.68;0.30;;;22.90;99.90;;;;;;4995011;28;20157;-69
2021/12/01 07:42:14;;;;;;;1.23;0.30;;;22.90;99.90;;;;;;4990356;28;20018;-69
2021/12/01 07:44:42;;;;;;;0.98;0.25;;;22.90;99.90;;;;;;4994997;28;20034;-68
2021/12/01 07:47:11;;;;;;;1.63;0.40;;;22.80;99.90;;;;;;4992855;28;20029;-68
2021/12/01 07:49:39;;;;;;;2.85;0.38;;;22.70;99.90;;;;;;4994909;28;20038;-68
2021/12/01 07:52:07;;;;;;;0.50;0.20;;;22.80;99.90;;;;;;5008765;28;20497;-69
2021/12/01 07:54:35;;;;;;;0.55;0.17;;;22.70;99.90;;;;;;5009089;28;20041;-70
2021/12/01 07:57:03;;;;;;;1.55;0.52;;;22.50;99.90;;;;;;4993602;28;20097;-68
2021/12/01 07:59:33;;;;;;;2.85;0.28;;;22.40;99.90;;;;;;4995045;28;20066;-68
2021/12/01 08:02:01;;;;;;;1.50;0.30;;;22.40;99.90;;;;;;4995189;28;20029;-69
2021/12/01 08:04:28;;;;;;;1.10;0.20;;;22.30;99.90;;;;;;5010736;28;20034;-69
2021/12/01 08:06:56;;;;;;;1.38;0.55;;;22.30;99.90;;;;;;4995884;28;20030;-69
2021/12/01 08:09:25;;;;;;;2.33;0.40;;;22.30;99.90;;;;;;4975900;28;20118;-69
2021/12/01 08:11:54;;;;;;;2.60;0.55;;;22.20;99.90;;;;;;4976335;28;20054;-68
2021/12/01 08:14:21;;;;;;;1.02;0.30;;;22.20;99.90;;;;;;4995247;28;20068;-69
2021/12/01 08:16:49;;;;;;;1.38;0.50;;;22.20;99.90;;;;;;4995868;28;20031;-69
2021/12/01 08:19:16;;;;;;;0.77;0.30;;;22.10;99.90;;;;;;4995577;28;20034;-69
2021/12/01 08:21:47;;;;;;;0.60;0.30;;;22.10;99.90;;;;;;4994786;28;20153;-67
2021/12/01 08:24:16;;;;;;;2.05;0.55;;;22.00;99.90;;;;;;4993259;28;20030;-69
2021/12/01 08:26:45;;;;;;;2.40;0.88;;;22.00;99.90;;;;;;4991214;28;20031;-69
2021/12/01 08:29:13;;;;;;;2.72;0.70;;;21.90;99.90;;;;;;4994080;28;20034;-66
2021/12/01 08:31:41;;;;;;;1.33;0.47;;;21.90;99.90;;;;;;4993918;28;20434;-67
2021/12/01 08:34:09;;;;;;;2.35;0.30;;;22.00;99.90;;;;;;4993424;28;20029;-67
2021/12/01 08:36:37;;;;;;;2.30;0.65;;;21.90;99.90;;;;;;4986922;28;20026;-66
2021/12/01 08:39:05;;;;;;;1.95;0.55;;;21.90;99.90;;;;;;4984112;28;20077;-67
2021/12/01 08:41:33;;;;;;;0.50;0.40;;;21.90;99.90;;;;;;4993384;28;20026;-67
2021/12/01 08:44:00;;;;;;;2.65;0.73;;;21.90;99.90;;;;;;4993168;28;20019;-66
2021/12/01 08:46:28;;;;;;;1.13;0.70;;;21.80;99.90;;;;;;4994078;28;20105;-67
2021/12/01 08:48:56;;;;;;;1.27;0.20;;;21.80;99.90;;;;;;4990747;28;20037;-66
2021/12/01 08:51:23;;;;;;;4.57;0.70;;;21.80;99.90;;;;;;4993743;28;20034;-66
2021/12/01 08:53:51;;;;;;;1.58;0.40;;;21.70;99.90;;;;;;4993698;28;20056;-67
2021/12/01 08:56:18;;;;;;;1.90;0.50;;;21.70;99.90;;;;;;4993131;28;20085;-66
2021/12/01 08:58:45;;;;;;;1.48;0.50;;;21.70;99.90;;;;;;4992486;28;20026;-66
2021/12/01 09:01:13;;;;;;;2.03;0.47;;;21.70;99.90;;;;;;4992561;28;20106;-66
2021/12/01 09:03:40;;;;;;;2.10;0.57;;;21.70;99.90;;;;;;4993103;28;20462;-67
2021/12/01 09:06:07;;;;;;;0.80;0.40;;;21.70;99.90;;;;;;4992851;28;20053;-67
2021/12/01 09:08:35;;;;;;;1.38;0.43;;;21.70;99.90;;;;;;4993688;28;20093;-66
2021/12/01 09:11:04;;;;;;;0.70;0.30;;;21.60;99.90;;;;;;4993271;28;20476;-67
2021/12/01 09:13:35;;;;;;;0.93;0.40;;;21.60;99.90;;;;;;4996134;28;20054;-66
2021/12/01 09:16:03;;;;;;;5.15;0.70;;;21.60;99.90;;;;;;4990477;28;20022;-66
2021/12/01 09:18:33;;;;;;;2.95;0.65;;;21.60;99.90;;;;;;4997889;28;20037;-69
2021/12/01 09:21:02;;;;;;;1.77;0.50;;;21.50;99.90;;;;;;4996659;28;20058;-66
2021/12/01 09:23:29;;;;;;;4.05;0.50;;;21.50;99.90;;;;;;4997296;28;20033;-66
2021/12/01 09:25:56;;;;;;;1.75;0.47;;;21.50;99.90;;;;;;4999373;28;20034;-66
2021/12/01 09:28:26;;;;;;;2.00;0.70;;;21.40;99.90;;;;;;4996387;28;20045;-67
2021/12/01 09:30:56;;;;;;;1.52;0.30;;;21.40;99.90;;;;;;5010406;28;20113;-66
2021/12/01 09:33:24;;;;;;;0.93;0.30;;;21.40;99.90;;;;;;4996970;28;20027;-67
2021/12/01 09:35:52;;;;;;;3.28;0.63;;;21.40;99.90;;;;;;4996794;28;20014;-67
2021/12/01 09:38:20;;;;;;;3.35;0.60;;;21.40;99.90;;;;;;4996598;28;20026;-67
2021/12/01 09:40:51;;;;;;;1.17;0.35;;;21.40;99.90;;;;;;4995713;28;20027;-66
2021/12/01 09:43:24;;;;;;;1.25;0.20;;;21.40;99.90;;;;;;4997378;28;20050;-66
2021/12/01 09:45:53;;;;;;;0.30;0.17;;;21.30;99.90;;;;;;4996675;28;20026;-66
2021/12/01 09:48:20;;;;;;;1.70;0.40;;;21.40;99.90;;;;;;4995654;28;20030;-66
2021/12/01 09:50:48;;;;;;;3.00;0.57;;;21.40;99.90;;;;;;4986064;28;20022;-66
2021/12/01 09:53:16;;;;;;;0.73;0.30;;;21.30;99.90;;;;;;4997314;28;20376;-66
2021/12/01 09:55:44;;;;;;;1.55;0.40;;;21.30;99.90;;;;;;4997122;28;20101;-66
2021/12/01 09:58:16;;;;;;;2.30;0.30;;;21.30;99.90;;;;;;5011972;28;20046;-66
2021/12/01 10:00:50;;;;;;;1.50;0.38;;;21.30;99.90;;;;;;5011026;28;20034;-66
2021/12/01 10:03:18;;;;;;;1.92;0.30;;;21.30;99.90;;;;;;4997449;28;20068;-66
2021/12/01 10:06:18;;;;;;;3.05;0.40;;;21.20;99.90;;;;;;4998104;28;20130;-66
2021/12/01 10:08:52;;;;;;;0.82;0.30;;;21.20;99.90;;;;;;4994952;28;20034;-66
2021/12/01 10:11:30;;;;;;;2.13;0.50;;;21.20;99.90;;;;;;4996331;28;20030;-66
2021/12/01 10:13:59;;;;;;;1.08;0.30;;;21.20;99.90;;;;;;4990916;28;20057;-66
2021/12/01 10:16:31;;;;;;;1.58;0.40;;;21.20;99.90;;;;;;4997631;28;20023;-68
2021/12/01 10:19:10;;;;;;;1.27;0.30;;;21.20;99.90;;;;;;4996708;28;20033;-67
2021/12/01 10:21:47;;;;;;;1.00;0.38;;;21.20;99.90;;;;;;4990044;28;20046;-67
2021/12/01 10:24:20;;;;;;;1.48;0.40;;;21.10;99.90;;;;;;4994835;28;20178;-67
2021/12/01 10:26:54;;;;;;;2.00;0.75;;;21.10;99.90;;;;;;5009991;28;20042;-67
2021/12/01 10:29:23;;;;;;;2.58;0.77;;;21.10;99.90;;;;;;4995607;28;20026;-67
2021/12/01 10:31:54;;;;;;;1.20;0.50;;;21.10;99.90;;;;;;4994343;28;20113;-67
2021/12/01 10:34:43;;;;;;;2.08;0.63;;;21.10;99.90;;;;;;4994208;28;20448;-67
2021/12/01 10:37:31;;;;;;;1.05;0.40;;;21.10;99.90;;;;;;5007320;28;20542;-67
2021/12/01 10:40:23;;;;;;;2.58;0.52;;;21.10;99.90;;;;;;4994644;28;20104;-67
2021/12/01 10:42:59;;;;;;;2.30;0.40;;;21.20;99.90;;;;;;5009973;28;20394;-67
2021/12/01 10:45:47;;;;;;;2.55;0.47;;;21.10;99.90;;;;;;4996509;28;20030;-67
2021/12/01 10:48:24;;;;;;;1.75;0.10;;;21.00;99.90;;;;;;4996622;28;20442;-67
2021/12/01 10:50:52;;;;;;;1.20;0.30;;;21.10;99.90;;;;;;4995122;28;20022;-67
2021/12/01 10:53:23;;;;;;;1.00;0.30;;;21.00;99.90;;;;;;4994928;28;20034;-67
2021/12/01 10:55:51;;;;;;;1.45;0.20;;;21.00;99.90;;;;;;4995383;28;20030;-67
2021/12/01 10:58:19;;;;;;;1.27;0.38;;;21.00;99.90;;;;;;4994954;28;20483;-67
2021/12/01 11:00:49;;;;;;;1.48;0.20;;;20.90;99.90;;;;;;4995816;28;20493;-67
2021/12/01 11:03:19;;;;;;;1.20;0.30;;;20.90;99.90;;;;;;4995774;28;20030;-67
2021/12/01 11:05:48;;;;;;;1.75;0.40;;;20.90;99.90;;;;;;4995050;28;20022;-67
2021/12/01 11:08:22;;;;;;;0.88;0.20;;;20.90;99.90;;;;;;4996447;28;20566;-67
2021/12/01 11:10:50;;;;;;;;;;;20.90;99.90;;;;;;4993939;28;20025;-68
2021/12/01 11:13:18;;;;;;;1.02;0.20;;;20.90;99.90;;;;;;4995400;28;19933;-68
2021/12/01 11:15:53;;;;;;;1.48;0.30;;;20.90;99.90;;;;;;4995279;28;20011;-68
2021/12/01 11:18:23;;;;;;;1.83;0.20;;;20.80;99.90;;;;;;5012248;28;20125;-68
2021/12/01 11:20:53;;;;;;;2.00;0.20;;;20.80;99.90;;;;;;4993207;28;20059;-68
2021/12/01 11:23:25;;;;;;;1.48;0.43;;;20.80;99.90;;;;;;4996947;28;20033;-68
2021/12/01 11:25:59;;;;;;;0.88;0.10;;;20.80;99.90;;;;;;4996769;28;20030;-68
2021/12/01 11:28:32;;;;;;;1.58;0.22;;;20.80;99.90;;;;;;4996717;28;20026;-68
2021/12/01 11:31:02;;;;;;;3.28;0.40;;;20.70;99.90;;;;;;4994773;28;20069;-68
2021/12/01 11:33:30;;;;;;;1.52;0.30;;;20.80;99.90;;;;;;4997556;28;20026;-68
2021/12/01 11:36:01;;;;;;;2.88;0.20;;;20.80;99.90;;;;;;4997383;28;20033;-68
2021/12/01 11:38:29;;;;;;;3.00;0.30;;;20.80;99.90;;;;;;4998019;28;20189;-68
2021/12/01 11:40:56;;;;;;;2.65;0.30;;;20.80;99.90;;;;;;4996645;28;20059;-68
2021/12/01 11:43:30;;;;;;;1.55;0.35;;;20.80;99.90;;;;;;4996110;28;20038;-68
2021/12/01 11:45:58;;;;;;;1.20;0.20;;;20.80;99.90;;;;;;4994903;28;20106;-68
2021/12/01 11:48:43;;;;;;;1.65;0.47;;;20.80;99.90;;;;;;4996483;28;20542;-68
2021/12/01 11:51:15;;;;;;;1.33;0.40;;;20.70;99.90;;;;;;4992028;28;20026;-68
2021/12/01 11:53:55;;;;;;;0.75;0.30;;;20.80;99.90;;;;;;4996237;28;20036;-68
2021/12/01 11:56:28;;;;;;;5.03;1.17;;;20.70;99.90;;;;;;4995343;28;20434;-68
2021/12/01 11:59:16;;;;;;;0.28;0.10;;;20.80;99.90;;;;;;4995805;28;20027;-68
2021/12/01 12:01:45;;;;;;;1.45;0.25;;;20.70;99.90;;;;;;4995075;28;20030;-68
2021/12/01 12:04:15;;;;;;;3.03;0.30;;;20.70;99.90;;;;;;4994966;28;20486;-67
2021/12/01 12:06:47;;;;;;;2.75;0.52;;;20.70;99.90;;;;;;4994078;28;20475;-66
2021/12/01 12:09:18;;;;;;;3.25;0.10;;;20.70;99.90;;;;;;4994808;28;20022;-67
2021/12/01 12:11:55;;;;;;;6.25;1.60;;;20.60;99.90;;;;;;4995252;28;20082;-67
2021/12/01 12:14:30;;;;;;;1.75;0.20;;;20.60;99.90;;;;;;4994060;28;20129;-67
2021/12/01 12:17:06;;;;;;;3.60;1.08;;;20.50;99.90;;;;;;4986956;28;20475;-67
2021/12/01 12:19:45;;;;;;;1.42;0.20;;;20.50;99.90;;;;;;4997688;28;20060;-67
2021/12/01 12:22:37;;;;;;;1.63;0.30;;;20.40;99.90;;;;;;4994501;28;20031;-67
2021/12/01 12:25:11;;;;;;;1.42;0.40;;;20.50;99.90;;;;;;4990390;28;20042;-67
2021/12/01 12:27:47;;;;;;;2.92;0.40;;;20.50;99.90;;;;;;4995184;28;20093;-67
2021/12/01 12:30:28;;;;;;;2.08;0.40;;;20.50;99.90;;;;;;4995400;28;20384;-67
2021/12/01 12:33:18;;;;;;;1.38;0.20;;;20.40;99.90;;;;;;4996402;28;20101;-67
2021/12/01 12:35:48;;;;;;;1.90;0.40;;;20.40;99.90;;;;;;4995423;28;20117;-67
2021/12/01 12:38:16;;;;;;;2.63;0.30;;;20.40;99.90;;;;;;4995680;28;20022;-66
2021/12/01 12:40:44;;;;;;;2.65;0.30;;;20.40;99.90;;;;;;4996613;28;20038;-67
2021/12/01 12:43:23;;;;;;;1.65;0.20;;;20.40;99.90;;;;;;4994654;28;20023;-67
2021/12/01 12:46:20;;;;;;;4.90;0.43;;;20.40;99.90;;;;;;4995416;28;20023;-67
2021/12/01 12:48:55;;;;;;;0.98;0.20;;;20.30;99.90;;;;;;4990324;28;20069;-67
2021/12/01 12:51:32;;;;;;;1.30;0.30;;;20.30;99.90;;;;;;4999274;28;20086;-67
2021/12/01 12:54:07;;;;;;;4.93;0.30;;;20.20;99.90;;;;;;4997243;28;20026;-67
2021/12/01 12:56:36;;;;;;;2.28;0.30;;;20.20;99.90;;;;;;5000130;28;20081;-67
2021/12/01 12:59:22;;;;;;;3.33;0.50;;;20.10;99.90;;;;;;4999100;28;20026;-67
2021/12/01 13:01:54;;;;;;;5.57;0.45;;;20.10;99.90;;;;;;5015383;28;20129;-67
2021/12/01 13:04:48;;;;;;;0.80;0.10;;;20.10;99.90;;;;;;4999699;28;20027;-67
2021/12/01 13:07:30;;;;;;;1.15;0.50;;;20.10;99.90;;;;;;4992118;28;20133;-67
2021/12/01 13:10:18;;;;;;;3.95;0.30;;;20.10;99.90;;;;;;4996796;28;20081;-67
2021/12/01 13:13:03;;;;;;;2.15;0.73;;;20.10;99.90;;;;;;4998974;28;20113;-67